sensor_id;sensor_type;location;lat;lon;timestamp;P1;durP1;ratioP1;P2;durP2;ratioP2
59607;SDS011;45426;44.726;10.390;2023-04-24T00:02:22;5.70;;;3.25;;
59607;SDS011;45426;44.726;10.390;2023-04-24T00:04:48;7.95;;;3.70;;
59607;SDS011;45426;44.726;10.390;2023-04-24T00:07:14;10.50;;;4.00;;
59607;SDS011;45426;44.726;10.390;2023-04-24T00:09:41;9.38;;;3.88;;
59607;SDS011;45426;44.726;10.390;2023-04-24T00:12:08;7.70;;;3.95;;
59607;SDS011;45426;44.726;10.390;2023-04-24T00:14:34;12.05;;;4.18;;
59607;SDS011;45426;44.726;10.390;2023-04-24T00:17:00;6.90;;;3.83;;
59607;SDS011;45426;44.726;10.390;2023-04-24T00:19:27;8.40;;;4.40;;
59607;SDS011;45426;44.726;10.390;2023-04-24T00:21:53;8.82;;;4.40;;
59607;SDS011;45426;44.726;10.390;2023-04-24T00:24:19;8.57;;;4.40;;
59607;SDS011;45426;44.726;10.390;2023-04-24T00:26:45;7.57;;;4.28;;
59607;SDS011;45426;44.726;10.390;2023-04-24T00:29:11;9.57;;;4.60;;
59607;SDS011;45426;44.726;10.390;2023-04-24T00:31:36;9.60;;;4.80;;
59607;SDS011;45426;44.726;10.390;2023-04-24T00:34:02;9.52;;;4.60;;
59607;SDS011;45426;44.726;10.390;2023-04-24T00:36:28;7.57;;;4.32;;
59607;SDS011;45426;44.726;10.390;2023-04-24T00:38:54;9.13;;;4.80;;
59607;SDS011;45426;44.726;10.390;2023-04-24T00:41:20;9.50;;;4.88;;
59607;SDS011;45426;44.726;10.390;2023-04-24T00:43:47;11.73;;;5.25;;
59607;SDS011;45426;44.726;10.390;2023-04-24T00:46:13;10.93;;;5.13;;
59607;SDS011;45426;44.726;10.390;2023-04-24T00:48:39;10.23;;;5.25;;
59607;SDS011;45426;44.726;10.390;2023-04-24T00:51:05;13.27;;;5.30;;
59607;SDS011;45426;44.726;10.390;2023-04-24T00:53:30;10.68;;;5.43;;
59607;SDS011;45426;44.726;10.390;2023-04-24T00:55:56;10.60;;;5.50;;
59607;SDS011;45426;44.726;10.390;2023-04-24T00:58:22;11.38;;;5.45;;
59607;SDS011;45426;44.726;10.390;2023-04-24T01:00:50;9.30;;;5.25;;
59607;SDS011;45426;44.726;10.390;2023-04-24T01:03:19;10.55;;;5.38;;
59607;SDS011;45426;44.726;10.390;2023-04-24T01:05:46;7.82;;;4.63;;
59607;SDS011;45426;44.726;10.390;2023-04-24T01:08:13;8.68;;;4.68;;
59607;SDS011;45426;44.726;10.390;2023-04-24T01:10:40;10.07;;;5.20;;
59607;SDS011;45426;44.726;10.390;2023-04-24T01:13:06;11.35;;;5.90;;
59607;SDS011;45426;44.726;10.390;2023-04-24T01:15:33;12.65;;;6.05;;
59607;SDS011;45426;44.726;10.390;2023-04-24T01:17:59;10.77;;;5.35;;
59607;SDS011;45426;44.726;10.390;2023-04-24T01:20:24;8.80;;;5.20;;
59607;SDS011;45426;44.726;10.390;2023-04-24T01:22:51;12.13;;;6.07;;
59607;SDS011;45426;44.726;10.390;2023-04-24T01:25:18;9.85;;;5.40;;
59607;SDS011;45426;44.726;10.390;2023-04-24T01:27:43;13.18;;;5.80;;
59607;SDS011;45426;44.726;10.390;2023-04-24T01:30:09;10.50;;;5.22;;
59607;SDS011;45426;44.726;10.390;2023-04-24T01:32:38;13.45;;;5.47;;
59607;SDS011;45426;44.726;10.390;2023-04-24T01:35:05;10.60;;;5.53;;
59607;SDS011;45426;44.726;10.390;2023-04-24T01:37:31;11.18;;;5.43;;
59607;SDS011;45426;44.726;10.390;2023-04-24T01:39:58;10.45;;;5.80;;
59607;SDS011;45426;44.726;10.390;2023-04-24T01:42:26;13.45;;;5.63;;
59607;SDS011;45426;44.726;10.390;2023-04-24T01:44:52;11.82;;;5.93;;
59607;SDS011;45426;44.726;10.390;2023-04-24T01:47:18;11.98;;;6.18;;
59607;SDS011;45426;44.726;10.390;2023-04-24T01:49:43;11.77;;;5.85;;
59607;SDS011;45426;44.726;10.390;2023-04-24T01:52:11;11.55;;;5.93;;
59607;SDS011;45426;44.726;10.390;2023-04-24T01:54:36;10.60;;;6.05;;
59607;SDS011;45426;44.726;10.390;2023-04-24T01:57:02;9.25;;;5.10;;
59607;SDS011;45426;44.726;10.390;2023-04-24T01:59:27;13.27;;;5.65;;
59607;SDS011;45426;44.726;10.390;2023-04-24T02:01:53;13.25;;;6.15;;
59607;SDS011;45426;44.726;10.390;2023-04-24T02:04:19;11.95;;;5.88;;
59607;SDS011;45426;44.726;10.390;2023-04-24T02:06:44;10.85;;;6.10;;
59607;SDS011;45426;44.726;10.390;2023-04-24T02:09:10;12.15;;;5.72;;
59607;SDS011;45426;44.726;10.390;2023-04-24T02:11:36;10.80;;;5.95;;
59607;SDS011;45426;44.726;10.390;2023-04-24T02:14:04;14.77;;;6.78;;
59607;SDS011;45426;44.726;10.390;2023-04-24T02:16:29;13.23;;;6.63;;
59607;SDS011;45426;44.726;10.390;2023-04-24T02:18:58;13.23;;;6.57;;
59607;SDS011;45426;44.726;10.390;2023-04-24T02:21:23;12.18;;;6.38;;
59607;SDS011;45426;44.726;10.390;2023-04-24T02:23:49;14.77;;;6.38;;
59607;SDS011;45426;44.726;10.390;2023-04-24T02:26:14;11.60;;;6.53;;
59607;SDS011;45426;44.726;10.390;2023-04-24T02:28:40;11.15;;;6.72;;
59607;SDS011;45426;44.726;10.390;2023-04-24T02:31:05;11.57;;;6.88;;
59607;SDS011;45426;44.726;10.390;2023-04-24T02:33:31;13.07;;;6.97;;
59607;SDS011;45426;44.726;10.390;2023-04-24T02:35:57;12.48;;;7.07;;
59607;SDS011;45426;44.726;10.390;2023-04-24T02:38:22;13.70;;;6.95;;
59607;SDS011;45426;44.726;10.390;2023-04-24T02:40:48;12.80;;;7.60;;
59607;SDS011;45426;44.726;10.390;2023-04-24T02:43:13;13.90;;;7.40;;
59607;SDS011;45426;44.726;10.390;2023-04-24T02:45:39;12.02;;;7.05;;
59607;SDS011;45426;44.726;10.390;2023-04-24T02:48:04;11.90;;;6.82;;
59607;SDS011;45426;44.726;10.390;2023-04-24T02:50:30;13.23;;;7.38;;
59607;SDS011;45426;44.726;10.390;2023-04-24T02:52:55;11.20;;;6.68;;
59607;SDS011;45426;44.726;10.390;2023-04-24T02:55:21;11.82;;;6.90;;
59607;SDS011;45426;44.726;10.390;2023-04-24T02:57:46;10.75;;;6.82;;
59607;SDS011;45426;44.726;10.390;2023-04-24T03:00:12;13.68;;;6.57;;
59607;SDS011;45426;44.726;10.390;2023-04-24T03:02:38;11.30;;;6.32;;
59607;SDS011;45426;44.726;10.390;2023-04-24T03:05:04;13.38;;;6.95;;
59607;SDS011;45426;44.726;10.390;2023-04-24T03:07:32;14.52;;;7.57;;
59607;SDS011;45426;44.726;10.390;2023-04-24T03:09:57;18.00;;;7.82;;
59607;SDS011;45426;44.726;10.390;2023-04-24T03:12:23;12.27;;;7.30;;
59607;SDS011;45426;44.726;10.390;2023-04-24T03:14:52;12.80;;;7.45;;
59607;SDS011;45426;44.726;10.390;2023-04-24T03:17:17;13.90;;;7.80;;
59607;SDS011;45426;44.726;10.390;2023-04-24T03:19:43;16.27;;;7.45;;
59607;SDS011;45426;44.726;10.390;2023-04-24T03:22:08;14.68;;;8.05;;
59607;SDS011;45426;44.726;10.390;2023-04-24T03:24:34;13.15;;;7.80;;
59607;SDS011;45426;44.726;10.390;2023-04-24T03:26:59;15.98;;;8.05;;
59607;SDS011;45426;44.726;10.390;2023-04-24T03:29:25;13.30;;;7.60;;
59607;SDS011;45426;44.726;10.390;2023-04-24T03:31:51;14.27;;;8.43;;
59607;SDS011;45426;44.726;10.390;2023-04-24T03:34:16;14.63;;;8.55;;
59607;SDS011;45426;44.726;10.390;2023-04-24T03:36:41;14.43;;;8.00;;
59607;SDS011;45426;44.726;10.390;2023-04-24T03:39:07;15.75;;;8.77;;
59607;SDS011;45426;44.726;10.390;2023-04-24T03:41:32;13.80;;;7.68;;
59607;SDS011;45426;44.726;10.390;2023-04-24T03:44:01;14.43;;;8.30;;
59607;SDS011;45426;44.726;10.390;2023-04-24T03:46:26;14.13;;;8.52;;
59607;SDS011;45426;44.726;10.390;2023-04-24T03:48:52;15.10;;;8.25;;
59607;SDS011;45426;44.726;10.390;2023-04-24T03:51:17;17.73;;;8.15;;
59607;SDS011;45426;44.726;10.390;2023-04-24T03:53:43;15.30;;;8.00;;
59607;SDS011;45426;44.726;10.390;2023-04-24T03:56:08;15.07;;;8.32;;
59607;SDS011;45426;44.726;10.390;2023-04-24T03:58:34;13.05;;;7.72;;
59607;SDS011;45426;44.726;10.390;2023-04-24T04:00:59;14.80;;;7.78;;
59607;SDS011;45426;44.726;10.390;2023-04-24T04:03:25;12.93;;;7.90;;
59607;SDS011;45426;44.726;10.390;2023-04-24T04:05:50;14.65;;;8.50;;
59607;SDS011;45426;44.726;10.390;2023-04-24T04:08:16;16.60;;;8.20;;
59607;SDS011;45426;44.726;10.390;2023-04-24T04:10:42;13.40;;;8.18;;
59607;SDS011;45426;44.726;10.390;2023-04-24T04:13:07;14.10;;;8.65;;
59607;SDS011;45426;44.726;10.390;2023-04-24T04:15:33;13.98;;;8.43;;
59607;SDS011;45426;44.726;10.390;2023-04-24T04:17:58;14.73;;;8.20;;
59607;SDS011;45426;44.726;10.390;2023-04-24T04:20:24;15.52;;;8.35;;
59607;SDS011;45426;44.726;10.390;2023-04-24T04:22:49;15.38;;;8.40;;
59607;SDS011;45426;44.726;10.390;2023-04-24T04:25:15;13.40;;;7.68;;
59607;SDS011;45426;44.726;10.390;2023-04-24T04:27:40;14.73;;;8.68;;
59607;SDS011;45426;44.726;10.390;2023-04-24T04:30:07;16.63;;;8.93;;
59607;SDS011;45426;44.726;10.390;2023-04-24T04:32:34;16.67;;;8.98;;
59607;SDS011;45426;44.726;10.390;2023-04-24T04:35:00;19.00;;;8.50;;
59607;SDS011;45426;44.726;10.390;2023-04-24T04:37:32;14.80;;;8.63;;
59607;SDS011;45426;44.726;10.390;2023-04-24T04:40:00;14.80;;;7.82;;
59607;SDS011;45426;44.726;10.390;2023-04-24T04:42:31;15.60;;;8.75;;
59607;SDS011;45426;44.726;10.390;2023-04-24T04:45:00;15.95;;;8.75;;
59607;SDS011;45426;44.726;10.390;2023-04-24T04:47:25;13.70;;;8.20;;
59607;SDS011;45426;44.726;10.390;2023-04-24T04:49:52;15.20;;;8.23;;
59607;SDS011;45426;44.726;10.390;2023-04-24T04:52:17;14.50;;;8.20;;
59607;SDS011;45426;44.726;10.390;2023-04-24T04:54:44;13.40;;;8.23;;
59607;SDS011;45426;44.726;10.390;2023-04-24T04:57:09;14.57;;;8.80;;
59607;SDS011;45426;44.726;10.390;2023-04-24T04:59:35;14.88;;;8.68;;
59607;SDS011;45426;44.726;10.390;2023-04-24T05:02:02;13.98;;;8.32;;
59607;SDS011;45426;44.726;10.390;2023-04-24T05:04:27;15.05;;;8.35;;
59607;SDS011;45426;44.726;10.390;2023-04-24T05:06:53;17.48;;;8.20;;
59607;SDS011;45426;44.726;10.390;2023-04-24T05:09:18;13.30;;;7.53;;
59607;SDS011;45426;44.726;10.390;2023-04-24T05:11:44;14.05;;;7.90;;
59607;SDS011;45426;44.726;10.390;2023-04-24T05:14:09;13.70;;;7.93;;
59607;SDS011;45426;44.726;10.390;2023-04-24T05:16:35;15.00;;;8.00;;
59607;SDS011;45426;44.726;10.390;2023-04-24T05:19:02;12.45;;;7.43;;
59607;SDS011;45426;44.726;10.390;2023-04-24T05:21:28;15.57;;;8.35;;
59607;SDS011;45426;44.726;10.390;2023-04-24T05:23:54;14.75;;;7.78;;
59607;SDS011;45426;44.726;10.390;2023-04-24T05:26:19;12.25;;;7.45;;
59607;SDS011;45426;44.726;10.390;2023-04-24T05:28:45;16.58;;;8.00;;
59607;SDS011;45426;44.726;10.390;2023-04-24T05:31:10;14.70;;;8.35;;
59607;SDS011;45426;44.726;10.390;2023-04-24T05:33:37;15.45;;;8.55;;
59607;SDS011;45426;44.726;10.390;2023-04-24T05:36:03;16.40;;;8.95;;
59607;SDS011;45426;44.726;10.390;2023-04-24T05:38:30;17.75;;;8.25;;
59607;SDS011;45426;44.726;10.390;2023-04-24T05:40:56;16.00;;;8.63;;
59607;SDS011;45426;44.726;10.390;2023-04-24T05:43:21;18.13;;;8.60;;
59607;SDS011;45426;44.726;10.390;2023-04-24T05:45:46;15.45;;;8.35;;
59607;SDS011;45426;44.726;10.390;2023-04-24T05:48:12;15.65;;;9.07;;
59607;SDS011;45426;44.726;10.390;2023-04-24T05:50:37;16.95;;;8.13;;
59607;SDS011;45426;44.726;10.390;2023-04-24T05:53:03;15.50;;;8.65;;
59607;SDS011;45426;44.726;10.390;2023-04-24T05:55:30;16.98;;;8.73;;
59607;SDS011;45426;44.726;10.390;2023-04-24T05:57:55;19.05;;;9.00;;
59607;SDS011;45426;44.726;10.390;2023-04-24T06:00:21;15.45;;;8.88;;
59607;SDS011;45426;44.726;10.390;2023-04-24T06:02:47;18.25;;;8.90;;
59607;SDS011;45426;44.726;10.390;2023-04-24T06:05:12;18.63;;;9.40;;
59607;SDS011;45426;44.726;10.390;2023-04-24T06:07:38;16.02;;;8.93;;
59607;SDS011;45426;44.726;10.390;2023-04-24T06:10:03;16.58;;;9.20;;
59607;SDS011;45426;44.726;10.390;2023-04-24T06:12:29;17.63;;;9.98;;
59607;SDS011;45426;44.726;10.390;2023-04-24T06:14:55;15.63;;;8.95;;
59607;SDS011;45426;44.726;10.390;2023-04-24T06:17:21;19.13;;;9.85;;
59607;SDS011;45426;44.726;10.390;2023-04-24T06:19:46;19.85;;;10.30;;
59607;SDS011;45426;44.726;10.390;2023-04-24T06:22:12;18.58;;;9.73;;
59607;SDS011;45426;44.726;10.390;2023-04-24T06:24:39;19.90;;;9.88;;
59607;SDS011;45426;44.726;10.390;2023-04-24T06:27:05;16.90;;;9.73;;
59607;SDS011;45426;44.726;10.390;2023-04-24T06:29:31;17.85;;;9.95;;
59607;SDS011;45426;44.726;10.390;2023-04-24T06:31:57;17.10;;;9.68;;
59607;SDS011;45426;44.726;10.390;2023-04-24T06:34:22;19.60;;;10.35;;
59607;SDS011;45426;44.726;10.390;2023-04-24T06:36:48;15.57;;;9.95;;
59607;SDS011;45426;44.726;10.390;2023-04-24T06:39:13;20.70;;;9.82;;
59607;SDS011;45426;44.726;10.390;2023-04-24T06:41:39;18.75;;;10.05;;
59607;SDS011;45426;44.726;10.390;2023-04-24T06:44:05;17.33;;;10.60;;
59607;SDS011;45426;44.726;10.390;2023-04-24T06:46:30;18.15;;;9.77;;
59607;SDS011;45426;44.726;10.390;2023-04-24T06:48:56;19.77;;;9.60;;
59607;SDS011;45426;44.726;10.390;2023-04-24T06:51:25;15.23;;;9.25;;
59607;SDS011;45426;44.726;10.390;2023-04-24T06:53:54;18.73;;;8.80;;
59607;SDS011;45426;44.726;10.390;2023-04-24T06:56:21;12.77;;;8.13;;
59607;SDS011;45426;44.726;10.390;2023-04-24T06:58:47;13.80;;;8.02;;
59607;SDS011;45426;44.726;10.390;2023-04-24T07:01:13;13.63;;;7.68;;
59607;SDS011;45426;44.726;10.390;2023-04-24T07:03:38;16.58;;;7.72;;
59607;SDS011;45426;44.726;10.390;2023-04-24T07:06:04;13.73;;;7.53;;
59607;SDS011;45426;44.726;10.390;2023-04-24T07:08:31;14.95;;;7.97;;
59607;SDS011;45426;44.726;10.390;2023-04-24T07:10:57;13.27;;;7.43;;
59607;SDS011;45426;44.726;10.390;2023-04-24T07:13:22;13.27;;;7.13;;
59607;SDS011;45426;44.726;10.390;2023-04-24T07:15:48;13.05;;;6.72;;
59607;SDS011;45426;44.726;10.390;2023-04-24T07:18:21;10.65;;;6.38;;
59607;SDS011;45426;44.726;10.390;2023-04-24T07:20:47;12.80;;;6.13;;
59607;SDS011;45426;44.726;10.390;2023-04-24T07:23:12;12.60;;;5.82;;
59607;SDS011;45426;44.726;10.390;2023-04-24T07:25:40;13.13;;;5.50;;
59607;SDS011;45426;44.726;10.390;2023-04-24T07:28:06;11.60;;;5.57;;
59607;SDS011;45426;44.726;10.390;2023-04-24T07:30:34;11.27;;;5.75;;
59607;SDS011;45426;44.726;10.390;2023-04-24T07:32:59;8.10;;;4.63;;
59607;SDS011;45426;44.726;10.390;2023-04-24T07:35:25;10.85;;;5.63;;
59607;SDS011;45426;44.726;10.390;2023-04-24T07:37:55;8.57;;;5.35;;
59607;SDS011;45426;44.726;10.390;2023-04-24T07:40:21;10.90;;;5.22;;
59607;SDS011;45426;44.726;10.390;2023-04-24T07:42:47;9.65;;;4.40;;
59607;SDS011;45426;44.726;10.390;2023-04-24T07:45:15;11.95;;;4.78;;
59607;SDS011;45426;44.726;10.390;2023-04-24T07:47:42;7.93;;;3.97;;
59607;SDS011;45426;44.726;10.390;2023-04-24T07:50:09;6.90;;;4.22;;
59607;SDS011;45426;44.726;10.390;2023-04-24T07:52:35;9.40;;;4.30;;
59607;SDS011;45426;44.726;10.390;2023-04-24T07:55:01;8.07;;;4.20;;
59607;SDS011;45426;44.726;10.390;2023-04-24T07:57:27;8.38;;;4.43;;
59607;SDS011;45426;44.726;10.390;2023-04-24T07:59:56;8.52;;;4.28;;
59607;SDS011;45426;44.726;10.390;2023-04-24T08:02:21;9.82;;;4.28;;
59607;SDS011;45426;44.726;10.390;2023-04-24T08:04:51;9.05;;;4.85;;
59607;SDS011;45426;44.726;10.390;2023-04-24T08:07:18;7.05;;;4.30;;
59607;SDS011;45426;44.726;10.390;2023-04-24T08:09:44;8.75;;;4.60;;
59607;SDS011;45426;44.726;10.390;2023-04-24T08:12:09;8.38;;;4.70;;
59607;SDS011;45426;44.726;10.390;2023-04-24T08:14:35;8.23;;;4.22;;
59607;SDS011;45426;44.726;10.390;2023-04-24T08:17:00;9.38;;;4.53;;
59607;SDS011;45426;44.726;10.390;2023-04-24T08:19:27;8.63;;;4.45;;
59607;SDS011;45426;44.726;10.390;2023-04-24T08:21:53;12.02;;;4.85;;
59607;SDS011;45426;44.726;10.390;2023-04-24T08:24:18;9.23;;;4.68;;
59607;SDS011;45426;44.726;10.390;2023-04-24T08:26:43;10.27;;;4.80;;
59607;SDS011;45426;44.726;10.390;2023-04-24T08:29:09;7.75;;;4.70;;
59607;SDS011;45426;44.726;10.390;2023-04-24T08:31:34;8.13;;;4.78;;
59607;SDS011;45426;44.726;10.390;2023-04-24T08:34:00;8.02;;;4.45;;
59607;SDS011;45426;44.726;10.390;2023-04-24T08:36:26;8.80;;;4.50;;
59607;SDS011;45426;44.726;10.390;2023-04-24T08:38:52;8.38;;;4.72;;
59607;SDS011;45426;44.726;10.390;2023-04-24T08:41:20;9.70;;;4.50;;
59607;SDS011;45426;44.726;10.390;2023-04-24T08:43:51;10.73;;;5.07;;
59607;SDS011;45426;44.726;10.390;2023-04-24T08:46:16;9.05;;;4.88;;
59607;SDS011;45426;44.726;10.390;2023-04-24T08:48:43;8.20;;;4.32;;
59607;SDS011;45426;44.726;10.390;2023-04-24T08:51:10;7.85;;;4.07;;
59607;SDS011;45426;44.726;10.390;2023-04-24T08:53:36;5.90;;;4.03;;
59607;SDS011;45426;44.726;10.390;2023-04-24T08:56:01;9.63;;;3.92;;
59607;SDS011;45426;44.726;10.390;2023-04-24T08:58:28;7.50;;;4.22;;
59607;SDS011;45426;44.726;10.390;2023-04-24T09:00:54;10.02;;;3.70;;
59607;SDS011;45426;44.726;10.390;2023-04-24T09:03:20;10.00;;;4.30;;
59607;SDS011;45426;44.726;10.390;2023-04-24T09:05:47;10.73;;;3.70;;
59607;SDS011;45426;44.726;10.390;2023-04-24T09:08:14;8.13;;;3.90;;
59607;SDS011;45426;44.726;10.390;2023-04-24T09:10:42;6.85;;;3.30;;
59607;SDS011;45426;44.726;10.390;2023-04-24T09:13:08;6.45;;;3.17;;
59607;SDS011;45426;44.726;10.390;2023-04-24T09:15:37;6.90;;;3.50;;
59607;SDS011;45426;44.726;10.390;2023-04-24T09:18:05;6.75;;;3.40;;
59607;SDS011;45426;44.726;10.390;2023-04-24T09:20:31;8.20;;;3.83;;
59607;SDS011;45426;44.726;10.390;2023-04-24T09:22:57;8.23;;;4.07;;
59607;SDS011;45426;44.726;10.390;2023-04-24T09:25:25;9.75;;;4.38;;
59607;SDS011;45426;44.726;10.390;2023-04-24T09:28:00;9.02;;;3.88;;
59607;SDS011;45426;44.726;10.390;2023-04-24T09:30:27;7.22;;;4.15;;
59607;SDS011;45426;44.726;10.390;2023-04-24T09:35:50;8.38;;;4.10;;
59607;SDS011;45426;44.726;10.390;2023-04-24T09:38:17;6.85;;;3.72;;
59607;SDS011;45426;44.726;10.390;2023-04-24T09:40:42;9.63;;;4.07;;
59607;SDS011;45426;44.726;10.390;2023-04-24T09:43:11;8.93;;;4.88;;
59607;SDS011;45426;44.726;10.390;2023-04-24T09:45:39;10.05;;;4.40;;
59607;SDS011;45426;44.726;10.390;2023-04-24T09:48:05;8.25;;;4.45;;
59607;SDS011;45426;44.726;10.390;2023-04-24T09:50:35;7.57;;;4.20;;
59607;SDS011;45426;44.726;10.390;2023-04-24T09:53:04;8.93;;;4.65;;
59607;SDS011;45426;44.726;10.390;2023-04-24T09:55:30;9.05;;;4.55;;
59607;SDS011;45426;44.726;10.390;2023-04-24T09:57:59;7.32;;;3.85;;
59607;SDS011;45426;44.726;10.390;2023-04-24T10:00:29;6.45;;;3.50;;
59607;SDS011;45426;44.726;10.390;2023-04-24T10:02:57;6.97;;;3.50;;
59607;SDS011;45426;44.726;10.390;2023-04-24T10:05:34;6.97;;;3.63;;
59607;SDS011;45426;44.726;10.390;2023-04-24T10:08:04;8.27;;;3.70;;
59607;SDS011;45426;44.726;10.390;2023-04-24T10:10:33;7.88;;;3.50;;
59607;SDS011;45426;44.726;10.390;2023-04-24T10:13:06;6.30;;;3.22;;
59607;SDS011;45426;44.726;10.390;2023-04-24T10:15:32;5.90;;;3.20;;
59607;SDS011;45426;44.726;10.390;2023-04-24T10:17:58;5.55;;;3.13;;
59607;SDS011;45426;44.726;10.390;2023-04-24T10:20:26;5.38;;;3.00;;
59607;SDS011;45426;44.726;10.390;2023-04-24T10:22:55;9.25;;;3.30;;
59607;SDS011;45426;44.726;10.390;2023-04-24T10:25:23;5.10;;;3.45;;
59607;SDS011;45426;44.726;10.390;2023-04-24T10:27:52;6.22;;;3.08;;
59607;SDS011;45426;44.726;10.390;2023-04-24T10:30:22;5.65;;;3.20;;
59607;SDS011;45426;44.726;10.390;2023-04-24T10:32:48;6.32;;;3.50;;
59607;SDS011;45426;44.726;10.390;2023-04-24T10:35:14;6.03;;;3.40;;
59607;SDS011;45426;44.726;10.390;2023-04-24T10:37:46;6.47;;;3.40;;
59607;SDS011;45426;44.726;10.390;2023-04-24T10:40:19;5.80;;;3.28;;
59607;SDS011;45426;44.726;10.390;2023-04-24T10:42:51;7.10;;;3.25;;
59607;SDS011;45426;44.726;10.390;2023-04-24T10:45:19;6.28;;;3.40;;
59607;SDS011;45426;44.726;10.390;2023-04-24T10:47:53;6.20;;;3.10;;
59607;SDS011;45426;44.726;10.390;2023-04-24T10:50:30;7.88;;;3.25;;
59607;SDS011;45426;44.726;10.390;2023-04-24T10:53:13;5.35;;;2.90;;
59607;SDS011;45426;44.726;10.390;2023-04-24T10:58:13;7.35;;;4.50;;
59607;SDS011;45426;44.726;10.390;2023-04-24T11:00:41;10.27;;;4.40;;
59607;SDS011;45426;44.726;10.390;2023-04-24T11:06:03;6.47;;;3.30;;
59607;SDS011;45426;44.726;10.390;2023-04-24T11:08:43;6.18;;;3.20;;
59607;SDS011;45426;44.726;10.390;2023-04-24T11:11:11;6.40;;;3.58;;
59607;SDS011;45426;44.726;10.390;2023-04-24T11:19:01;7.22;;;3.08;;
59607;SDS011;45426;44.726;10.390;2023-04-24T11:21:40;5.00;;;3.00;;
59607;SDS011;45426;44.726;10.390;2023-04-24T11:24:30;5.82;;;3.40;;
59607;SDS011;45426;44.726;10.390;2023-04-24T11:29:58;6.15;;;3.85;;
59607;SDS011;45426;44.726;10.390;2023-04-24T11:32:29;6.97;;;3.88;;
59607;SDS011;45426;44.726;10.390;2023-04-24T11:35:18;5.55;;;3.60;;
59607;SDS011;45426;44.726;10.390;2023-04-24T11:37:46;5.70;;;3.78;;
59607;SDS011;45426;44.726;10.390;2023-04-24T11:40:16;6.57;;;4.03;;
59607;SDS011;45426;44.726;10.390;2023-04-24T11:42:45;7.05;;;3.78;;
59607;SDS011;45426;44.726;10.390;2023-04-24T11:45:20;8.57;;;4.70;;
59607;SDS011;45426;44.726;10.390;2023-04-24T11:47:47;7.95;;;4.22;;
59607;SDS011;45426;44.726;10.390;2023-04-24T11:50:14;7.50;;;4.15;;
59607;SDS011;45426;44.726;10.390;2023-04-24T11:52:45;5.63;;;3.25;;
59607;SDS011;45426;44.726;10.390;2023-04-24T11:57:47;7.28;;;4.07;;
59607;SDS011;45426;44.726;10.390;2023-04-24T12:00:24;7.80;;;4.68;;
59607;SDS011;45426;44.726;10.390;2023-04-24T12:02:52;8.30;;;4.83;;
59607;SDS011;45426;44.726;10.390;2023-04-24T12:05:31;8.27;;;4.65;;
59607;SDS011;45426;44.726;10.390;2023-04-24T12:07:57;9.30;;;4.78;;
59607;SDS011;45426;44.726;10.390;2023-04-24T12:10:23;9.13;;;4.20;;
59607;SDS011;45426;44.726;10.390;2023-04-24T12:12:50;8.43;;;4.50;;
59607;SDS011;45426;44.726;10.390;2023-04-24T12:15:17;8.50;;;5.00;;
59607;SDS011;45426;44.726;10.390;2023-04-24T12:17:45;9.93;;;5.05;;
59607;SDS011;45426;44.726;10.390;2023-04-24T12:20:11;8.98;;;4.70;;
59607;SDS011;45426;44.726;10.390;2023-04-24T12:22:48;9.20;;;4.70;;
59607;SDS011;45426;44.726;10.390;2023-04-24T12:25:16;8.85;;;4.40;;
59607;SDS011;45426;44.726;10.390;2023-04-24T12:27:44;7.35;;;4.40;;
59607;SDS011;45426;44.726;10.390;2023-04-24T12:30:17;7.75;;;4.72;;
59607;SDS011;45426;44.726;10.390;2023-04-24T12:32:44;9.45;;;4.70;;
59607;SDS011;45426;44.726;10.390;2023-04-24T12:35:11;8.05;;;4.82;;
59607;SDS011;45426;44.726;10.390;2023-04-24T12:37:36;5.63;;;3.83;;
59607;SDS011;45426;44.726;10.390;2023-04-24T12:40:09;7.63;;;4.50;;
59607;SDS011;45426;44.726;10.390;2023-04-24T12:42:42;7.07;;;4.55;;
59607;SDS011;45426;44.726;10.390;2023-04-24T12:45:08;8.32;;;4.80;;
59607;SDS011;45426;44.726;10.390;2023-04-24T12:47:36;8.60;;;4.60;;
59607;SDS011;45426;44.726;10.390;2023-04-24T12:50:02;7.82;;;4.82;;
59607;SDS011;45426;44.726;10.390;2023-04-24T12:52:28;5.95;;;3.80;;
59607;SDS011;45426;44.726;10.390;2023-04-24T12:54:57;6.68;;;4.05;;
59607;SDS011;45426;44.726;10.390;2023-04-24T12:57:25;6.80;;;3.92;;
59607;SDS011;45426;44.726;10.390;2023-04-24T12:59:55;8.18;;;4.45;;
59607;SDS011;45426;44.726;10.390;2023-04-24T13:02:24;7.70;;;4.13;;
59607;SDS011;45426;44.726;10.390;2023-04-24T13:04:54;9.45;;;5.00;;
59607;SDS011;45426;44.726;10.390;2023-04-24T13:07:22;8.85;;;5.20;;
59607;SDS011;45426;44.726;10.390;2023-04-24T13:09:49;7.60;;;4.50;;
59607;SDS011;45426;44.726;10.390;2023-04-24T13:12:16;8.15;;;4.53;;
59607;SDS011;45426;44.726;10.390;2023-04-24T13:14:41;8.48;;;4.80;;
59607;SDS011;45426;44.726;10.390;2023-04-24T13:17:07;7.72;;;4.00;;
59607;SDS011;45426;44.726;10.390;2023-04-24T13:19:38;9.25;;;4.93;;
59607;SDS011;45426;44.726;10.390;2023-04-24T13:22:10;8.52;;;5.05;;
59607;SDS011;45426;44.726;10.390;2023-04-24T13:24:37;9.50;;;4.80;;
59607;SDS011;45426;44.726;10.390;2023-04-24T13:27:06;8.15;;;4.63;;
59607;SDS011;45426;44.726;10.390;2023-04-24T13:29:34;8.23;;;5.00;;
59607;SDS011;45426;44.726;10.390;2023-04-24T13:32:00;9.25;;;4.90;;
59607;SDS011;45426;44.726;10.390;2023-04-24T13:34:25;8.73;;;5.13;;
59607;SDS011;45426;44.726;10.390;2023-04-24T13:36:52;8.63;;;5.05;;
59607;SDS011;45426;44.726;10.390;2023-04-24T13:39:19;4.68;;;2.85;;
59607;SDS011;45426;44.726;10.390;2023-04-24T13:41:45;5.45;;;2.50;;
59607;SDS011;45426;44.726;10.390;2023-04-24T13:44:16;3.80;;;2.55;;
59607;SDS011;45426;44.726;10.390;2023-04-24T13:46:43;5.15;;;1.85;;
59607;SDS011;45426;44.726;10.390;2023-04-24T13:49:11;2.67;;;1.63;;
59607;SDS011;45426;44.726;10.390;2023-04-24T13:51:37;2.22;;;1.50;;
59607;SDS011;45426;44.726;10.390;2023-04-24T13:54:03;1.30;;;1.10;;
59607;SDS011;45426;44.726;10.390;2023-04-24T13:56:29;2.03;;;1.30;;
59607;SDS011;45426;44.726;10.390;2023-04-24T13:58:54;4.05;;;1.38;;
59607;SDS011;45426;44.726;10.390;2023-04-24T14:01:20;2.13;;;1.08;;
59607;SDS011;45426;44.726;10.390;2023-04-24T14:03:50;3.38;;;1.38;;
59607;SDS011;45426;44.726;10.390;2023-04-24T14:06:19;1.98;;;1.23;;
59607;SDS011;45426;44.726;10.390;2023-04-24T14:08:45;1.85;;;1.13;;
59607;SDS011;45426;44.726;10.390;2023-04-24T14:11:11;1.90;;;1.30;;
59607;SDS011;45426;44.726;10.390;2023-04-24T14:13:37;2.63;;;1.00;;
59607;SDS011;45426;44.726;10.390;2023-04-24T14:16:03;2.33;;;1.10;;
59607;SDS011;45426;44.726;10.390;2023-04-24T14:18:29;4.38;;;1.30;;
59607;SDS011;45426;44.726;10.390;2023-04-24T14:20:55;2.85;;;0.85;;
59607;SDS011;45426;44.726;10.390;2023-04-24T14:23:20;1.17;;;0.88;;
59607;SDS011;45426;44.726;10.390;2023-04-24T14:25:46;3.33;;;0.90;;
59607;SDS011;45426;44.726;10.390;2023-04-24T14:28:15;4.75;;;0.90;;
59607;SDS011;45426;44.726;10.390;2023-04-24T14:30:41;1.80;;;0.80;;
59607;SDS011;45426;44.726;10.390;2023-04-24T14:33:06;1.65;;;0.90;;
59607;SDS011;45426;44.726;10.390;2023-04-24T14:35:32;2.05;;;1.00;;
59607;SDS011;45426;44.726;10.390;2023-04-24T14:37:59;2.20;;;1.00;;
59607;SDS011;45426;44.726;10.390;2023-04-24T14:40:24;2.88;;;0.90;;
59607;SDS011;45426;44.726;10.390;2023-04-24T14:42:50;5.43;;;1.10;;
59607;SDS011;45426;44.726;10.390;2023-04-24T14:45:16;2.80;;;0.90;;
59607;SDS011;45426;44.726;10.390;2023-04-24T14:47:42;1.05;;;0.82;;